createdAt,value
2023-03-12T00:03:13.867Z,2.67
2023-03-12T00:08:16.948Z,2.70
2023-03-12T00:13:20.261Z,2.80
2023-03-12T00:18:24.748Z,2.50
2023-03-12T00:23:28.035Z,2.97
2023-03-12T00:28:31.264Z,2.70
2023-03-12T00:33:35.836Z,2.70
2023-03-12T00:38:38.975Z,2.90
2023-03-12T00:43:42.073Z,3.07
2023-03-12T00:48:47.400Z,2.90
2023-03-12T00:53:50.758Z,2.50
2023-03-12T00:58:54.181Z,3.10
2023-03-12T01:03:59.954Z,2.60
2023-03-12T01:09:05.229Z,2.10
2023-03-12T01:14:09.844Z,2.20
2023-03-12T01:19:14.802Z,2.50
2023-03-12T01:24:18.097Z,2.80
2023-03-12T01:29:21.222Z,2.97
2023-03-12T01:34:27.693Z,2.57
2023-03-12T01:39:30.834Z,2.90
2023-03-12T01:44:56.466Z,3.20
2023-03-12T01:50:03.395Z,2.40
2023-03-12T01:55:10.645Z,2.57
2023-03-12T02:00:18.487Z,2.50
2023-03-12T02:05:29.345Z,3.00
2023-03-12T02:10:33.191Z,3.17
2023-03-12T02:15:38.463Z,2.77
2023-03-12T02:20:50.570Z,2.97
2023-03-12T02:25:57.198Z,2.40
2023-03-12T02:31:03.896Z,2.43
2023-03-12T02:36:08.216Z,2.83
2023-03-12T02:41:19.727Z,3.10
2023-03-12T02:46:24.716Z,2.63
2023-03-12T02:51:28.193Z,3.77
2023-03-12T02:56:32.853Z,2.80
2023-03-12T03:01:36.653Z,3.03
2023-03-12T03:06:44.165Z,3.00
2023-03-12T03:11:48.964Z,2.70
2023-03-12T03:16:52.688Z,2.47
2023-03-12T03:21:55.885Z,2.70
2023-03-12T03:27:00.427Z,2.53
2023-03-12T03:32:05.492Z,2.67
2023-03-12T03:37:08.624Z,2.40
2023-03-12T03:42:13.357Z,2.10
2023-03-12T03:47:16.917Z,2.10
2023-03-12T03:52:20.166Z,2.00
2023-03-12T03:57:24.963Z,1.60
2023-03-12T04:02:29.061Z,1.90
2023-03-12T04:07:32.617Z,1.83
2023-03-12T04:12:37.077Z,2.10
2023-03-12T04:17:40.396Z,1.90
2023-03-12T04:22:43.658Z,2.10
2023-03-12T04:27:48.159Z,2.00
2023-03-12T04:32:51.387Z,2.00
2023-03-12T04:37:54.556Z,1.67
2023-03-12T04:42:59.308Z,1.70
2023-03-12T04:48:02.506Z,1.70
2023-03-12T04:53:05.694Z,1.90
2023-03-12T04:58:10.237Z,1.80
2023-03-12T05:03:13.323Z,1.97
2023-03-12T05:08:16.526Z,1.87
2023-03-12T05:13:22.760Z,2.07
2023-03-12T05:18:27.000Z,1.87
2023-03-12T05:23:30.832Z,1.80
2023-03-12T05:28:35.338Z,1.60
2023-03-12T05:33:38.970Z,1.60
2023-03-12T05:38:42.740Z,1.60
2023-03-12T05:43:47.453Z,1.57
2023-03-12T05:48:50.771Z,2.27
2023-03-12T05:53:54.112Z,2.63
2023-03-12T05:59:02.329Z,2.30
2023-03-12T06:04:06.084Z,2.10
2023-03-12T06:09:13.151Z,1.70
2023-03-12T06:14:17.583Z,1.80
2023-03-12T06:19:22.033Z,1.70
2023-03-12T06:24:26.450Z,1.63
2023-03-12T06:29:31.086Z,1.47
2023-03-12T06:34:34.576Z,1.90
2023-03-12T06:39:37.728Z,1.40
2023-03-12T06:44:42.339Z,1.60
2023-03-12T06:49:45.485Z,2.40
2023-03-12T06:54:48.622Z,1.50
2023-03-12T06:59:53.248Z,1.73
2023-03-12T07:04:56.515Z,1.50
2023-03-12T07:10:00.628Z,1.77
2023-03-12T07:15:05.735Z,1.67
2023-03-12T07:20:10.287Z,1.60
2023-03-12T07:25:13.523Z,1.90
2023-03-12T07:30:18.873Z,1.70
2023-03-12T07:35:22.427Z,1.40
2023-03-12T07:40:25.884Z,1.40
2023-03-12T07:45:31.409Z,1.87
2023-03-12T07:50:34.811Z,1.27
2023-03-12T07:55:38.152Z,1.60
2023-03-12T08:00:44.280Z,1.70
2023-03-12T08:05:56.709Z,1.73
2023-03-12T08:11:00.744Z,1.63
2023-03-12T08:16:07.658Z,1.87
2023-03-12T08:21:16.332Z,1.60
2023-03-12T08:26:19.761Z,1.40
2023-03-12T08:31:24.786Z,1.60
2023-03-12T08:36:28.341Z,1.40
2023-03-12T08:41:31.827Z,1.90
2023-03-12T08:46:36.375Z,1.20
2023-03-12T08:51:39.508Z,1.87
2023-03-12T08:56:43.841Z,1.53
2023-03-12T09:01:48.884Z,2.23
2023-03-12T09:06:52.178Z,1.23
2023-03-12T09:11:55.710Z,1.33
2023-03-12T09:17:00.300Z,1.30
2023-03-12T09:22:03.710Z,1.40
2023-03-12T09:27:06.924Z,1.30
2023-03-12T09:32:11.502Z,1.20
2023-03-12T09:37:14.754Z,1.30
2023-03-12T09:42:24.899Z,1.23
2023-03-12T09:47:32.696Z,1.47
2023-03-12T09:52:41.272Z,1.80
2023-03-12T09:57:45.515Z,1.40
2023-03-12T10:03:10.532Z,1.53
2023-03-12T10:08:26.918Z,1.83
2023-03-12T10:13:51.785Z,1.80
2023-03-12T10:19:12.497Z,1.80
2023-03-12T10:24:31.744Z,1.57
2023-03-12T10:29:40.700Z,1.80
2023-03-12T10:34:48.932Z,1.93
2023-03-12T10:39:54.023Z,1.63
2023-03-12T10:45:01.648Z,1.60
2023-03-12T10:50:19.470Z,1.63
2023-03-12T10:55:26.578Z,3.70
2023-03-12T11:00:33.537Z,1.90
2023-03-12T11:05:48.650Z,1.90
2023-03-12T11:10:51.846Z,2.27
2023-03-12T11:15:56.493Z,2.27
2023-03-12T11:21:17.219Z,2.13
2023-03-12T11:26:22.815Z,1.80
2023-03-12T11:31:30.738Z,1.83
2023-03-12T11:36:49.164Z,2.47
2023-03-12T11:42:08.290Z,2.10
2023-03-12T11:47:21.635Z,2.00
2023-03-12T11:52:38.481Z,2.00
2023-03-12T11:57:52.063Z,1.90
2023-03-12T12:03:20.659Z,2.20
2023-03-12T12:08:47.005Z,1.83
2023-03-12T12:14:04.794Z,2.00
2023-03-12T12:19:21.531Z,1.70
2023-03-12T12:24:41.244Z,2.00
2023-03-12T12:30:07.029Z,2.10
2023-03-12T12:35:23.797Z,2.03
2023-03-12T12:40:32.495Z,1.73
2023-03-12T12:45:40.743Z,2.00
2023-03-12T12:50:50.428Z,1.87
2023-03-12T12:56:04.158Z,1.60
2023-03-12T13:01:09.365Z,1.57
2023-03-12T13:06:12.944Z,2.20
2023-03-12T13:11:28.655Z,2.13
2023-03-12T13:16:34.595Z,1.93
2023-03-12T13:21:41.488Z,1.40
2023-03-12T13:26:55.341Z,1.50
2023-03-12T13:31:59.175Z,1.23
2023-03-12T13:37:18.914Z,1.33
2023-03-12T13:42:39.598Z,1.50
2023-03-12T13:47:48.129Z,1.50
2023-03-12T13:53:02.462Z,1.27
2023-03-12T13:58:16.044Z,1.33
2023-03-12T14:03:23.371Z,1.50
2023-03-12T14:08:45.055Z,2.03
2023-03-12T14:14:11.368Z,1.30
2023-03-12T14:19:15.740Z,1.80
2023-03-12T14:24:26.370Z,2.23
2023-03-12T14:29:37.284Z,1.60
2023-03-12T14:34:44.262Z,1.70
2023-03-12T14:39:52.110Z,1.93
2023-03-12T14:45:02.438Z,1.80
2023-03-12T14:50:06.724Z,2.07
2023-03-12T14:55:15.225Z,1.80
2023-03-12T15:00:28.691Z,1.90
2023-03-12T15:05:34.633Z,2.10
2023-03-12T15:10:40.951Z,1.90
2023-03-12T15:15:49.921Z,1.93
2023-03-12T15:20:54.565Z,2.03
2023-03-12T15:26:12.694Z,1.80
2023-03-12T15:31:18.669Z,1.50
2023-03-12T15:36:27.157Z,2.03
2023-03-12T15:41:43.016Z,1.60
2023-03-12T15:46:49.214Z,2.47
2023-03-12T15:52:26.519Z,2.07
2023-03-12T15:57:30.302Z,1.87
2023-03-12T16:02:39.924Z,2.13
2023-03-12T16:07:43.222Z,2.00
2023-03-12T16:12:47.573Z,2.23
2023-03-12T16:17:52.148Z,1.97
2023-03-12T16:22:57.302Z,1.50
2023-03-12T16:28:04.515Z,1.40
2023-03-12T16:33:09.756Z,2.50
2023-03-12T16:38:12.977Z,1.47
2023-03-12T16:43:19.260Z,1.47
2023-03-12T16:48:26.649Z,1.90
2023-03-12T16:53:30.762Z,1.47
2023-03-12T16:58:33.878Z,1.53
2023-03-12T17:03:42.293Z,3.13
2023-03-12T17:08:45.338Z,1.70
2023-03-12T17:13:53.160Z,2.00
2023-03-12T17:18:58.108Z,1.87
2023-03-12T17:24:01.554Z,2.70
2023-03-12T17:29:04.845Z,2.00
2023-03-12T17:34:09.290Z,2.53
2023-03-12T17:39:12.717Z,2.27
2023-03-12T17:44:16.048Z,2.43
2023-03-12T17:49:20.681Z,2.80
2023-03-12T17:54:34.330Z,2.47
2023-03-12T17:59:37.654Z,2.27
2023-03-12T18:04:45.903Z,1.80
2023-03-12T18:09:50.119Z,1.80
2023-03-12T18:14:56.444Z,1.70
2023-03-12T18:20:02.805Z,1.40
2023-03-12T18:30:29.497Z,1.47
2023-03-12T18:35:35.176Z,1.60
2023-03-12T18:40:39.365Z,1.30
2023-03-12T18:45:44.178Z,1.47
2023-03-12T18:50:48.983Z,1.80
2023-03-12T18:55:53.891Z,1.40
2023-03-12T19:00:59.059Z,1.43
2023-03-12T19:06:05.073Z,1.47
2023-03-12T19:11:13.876Z,1.80
2023-03-12T19:16:20.045Z,2.07
2023-03-12T19:21:25.792Z,1.90
2023-03-12T19:26:28.868Z,1.80
2023-03-12T19:31:32.256Z,2.00
2023-03-12T19:36:36.981Z,2.00
2023-03-12T19:41:41.121Z,1.80
2023-03-12T19:46:48.333Z,2.30
2023-03-12T19:51:53.038Z,1.93
2023-03-12T19:56:58.464Z,1.80
2023-03-12T20:02:01.735Z,1.90
2023-03-12T20:07:06.414Z,1.90
2023-03-12T20:12:09.964Z,2.10
2023-03-12T20:17:13.336Z,2.30
2023-03-12T20:22:26.514Z,1.83
2023-03-12T20:27:31.071Z,2.10
2023-03-12T20:32:34.460Z,2.10
2023-03-12T20:37:39.058Z,1.97
2023-03-12T20:42:43.556Z,1.97
2023-03-12T20:47:47.171Z,1.60
2023-03-12T20:52:52.882Z,1.70
2023-03-12T20:57:56.049Z,1.90
2023-03-12T21:03:00.581Z,1.73
2023-03-12T21:08:06.605Z,1.83
2023-03-12T21:13:10.190Z,1.57
2023-03-12T21:18:13.695Z,1.70
2023-03-12T21:23:18.738Z,1.57
2023-03-12T21:28:22.090Z,1.77
2023-03-12T21:33:25.407Z,2.50
2023-03-12T21:38:31.230Z,1.83
2023-03-12T21:43:34.546Z,1.67
2023-03-12T21:48:37.995Z,2.03
2023-03-12T21:53:42.581Z,2.10
2023-03-12T21:58:45.646Z,2.37
2023-03-12T22:03:48.886Z,2.17
2023-03-12T22:08:53.417Z,1.80
2023-03-12T22:13:56.459Z,2.33
2023-03-12T22:18:59.752Z,2.30
2023-03-12T22:24:05.095Z,2.03
2023-03-12T22:29:08.238Z,2.50
2023-03-12T22:34:11.506Z,2.37
2023-03-12T22:39:17.471Z,2.17
2023-03-12T22:44:20.874Z,2.73
2023-03-12T22:49:24.148Z,2.40
2023-03-12T22:54:28.728Z,2.63
2023-03-12T22:59:31.854Z,2.90
2023-03-12T23:04:35.597Z,2.57
2023-03-12T23:09:40.384Z,2.33
2023-03-12T23:14:44.185Z,2.83
2023-03-12T23:19:47.541Z,3.03
2023-03-12T23:24:52.402Z,2.93
2023-03-12T23:29:55.741Z,2.60
2023-03-12T23:35:10.992Z,2.87
2023-03-12T23:40:17.000Z,3.00
2023-03-12T23:45:20.217Z,3.00
2023-03-12T23:50:23.459Z,3.13
2023-03-12T23:55:27.983Z,3.60
